Time,TemperatureF,DewpointF,PressureIn,WindDirection,WindDirectionDegrees,WindSpeedMPH,WindSpeedGustMPH,Humidity,HourlyPrecipIn,Conditions,Clouds,dailyrainin,SoftwareType,DateUTC
2013-04-09 00:00:00,65.1,54.3,29.18,South,184,9.0,10.0,68,0.00,SCT,,0.00,WeatherDisplay:10.37,2013-04-09 05:00:00,
2013-04-09 00:04:00,64.9,54.1,29.15,South,185,9.0,10.0,68,0.00,RA,,0.00,WeatherDisplay:10.37,2013-04-09 05:04:00,
2013-04-09 00:10:00,64.9,54.1,29.15,South,183,9.0,10.0,68,0.00,RA,,0.00,WeatherDisplay:10.37,2013-04-09 05:10:00,
2013-04-09 00:20:00,64.6,54.2,29.15,South,178,9.0,10.0,69,0.00,SCT,,0.00,WeatherDisplay:10.37,2013-04-09 05:20:00,
2013-04-09 00:25:00,64.4,54.0,29.15,South,180,9.0,9.0,69,0.00,SCT,,0.00,WeatherDisplay:10.37,2013-04-09 05:25:00,
2013-04-09 00:35:00,64.0,54.1,29.15,South,180,9.0,9.0,70,0.00,SCT,,0.00,WeatherDisplay:10.37,2013-04-09 05:35:00,
2013-04-09 00:44:00,64.0,54.4,29.15,South,178,9.0,9.0,71,0.00,SCT,,0.00,WeatherDisplay:10.37,2013-04-09 05:44:00,
2013-04-09 00:50:00,64.2,54.6,29.15,South,179,9.0,9.0,71,0.00,CLR,,0.00,WeatherDisplay:10.37,2013-04-09 05:50:00,
2013-04-09 00:55:00,64.2,54.6,29.15,South,182,9.0,9.0,71,0.00,CLR,,0.00,WeatherDisplay:10.37,2013-04-09 05:55:00,
2013-04-09 01:04:00,64.2,54.6,29.15,SSW,193,9.0,9.0,71,0.00,CLR,,0.00,WeatherDisplay:10.37,2013-04-09 06:04:00,
2013-04-09 01:10:00,64.2,54.6,29.15,South,191,9.0,9.0,71,0.00,CLR,,0.00,WeatherDisplay:10.37,2013-04-09 06:10:00,
2013-04-09 01:14:00,64.2,54.6,29.15,SSW,196,9.0,9.0,71,0.00,CLR,,0.00,WeatherDisplay:10.37,2013-04-09 06:14:00,
2013-04-09 01:20:00,65.7,55.2,29.15,SSW,203,9.0,10.0,69,0.00,CLR,,0.00,WeatherDisplay:10.37,2013-04-09 06:20:00,
2013-04-09 01:24:00,65.7,54.8,29.15,SSW,201,10.0,10.0,68,0.00,CLR,,0.00,WeatherDisplay:10.37,2013-04-09 06:24:00,
2013-04-09 01:30:00,66.0,55.2,29.15,SSW,196,10.0,11.0,68,0.00,CLR,,0.00,WeatherDisplay:10.37,2013-04-09 06:30:00,
2013-04-09 01:34:00,65.8,55.0,29.15,South,189,12.0,12.0,68,0.00,BKN,,0.00,WeatherDisplay:10.37,2013-04-09 06:34:00,
2013-04-09 01:40:00,65.7,54.8,29.15,South,188,12.0,12.0,68,0.00,BKN,,0.00,WeatherDisplay:10.37,2013-04-09 06:40:00,
2013-04-09 01:44:00,65.5,54.6,29.15,South,184,12.0,12.0,68,0.00,BKN,,0.00,WeatherDisplay:10.37,2013-04-09 06:44:00,
2013-04-09 01:50:00,65.1,54.7,29.15,South,180,12.0,12.0,69,0.00,BKN,,0.00,WeatherDisplay:10.37,2013-04-09 06:50:00,
2013-04-09 01:55:00,64.9,54.5,29.15,South,180,12.0,12.0,69,0.00,BKN,,0.00,WeatherDisplay:10.37,2013-04-09 06:55:00,
2013-04-09 02:10:00,64.2,54.6,29.15,South,172,10.0,11.0,71,0.00,SCT,,0.00,WeatherDisplay:10.37,2013-04-09 07:10:00,
2013-04-09 02:15:00,63.9,54.7,29.15,South,172,10.0,11.0,72,0.00,SCT,,0.00,WeatherDisplay:10.37,2013-04-09 07:15:00,
2013-04-09 02:25:00,63.5,54.3,29.12,South,174,10.0,11.0,72,0.00,SCT,,0.00,WeatherDisplay:10.37,2013-04-09 07:25:00,
2013-04-09 02:30:00,63.3,54.5,29.12,South,173,10.0,11.0,73,0.00,SCT,,0.00,WeatherDisplay:10.37,2013-04-09 07:30:00,
2013-04-09 02:40:00,63.1,54.3,29.12,South,170,10.0,11.0,73,0.00,SCT,,0.00,WeatherDisplay:10.37,2013-04-09 07:40:00,
2013-04-09 02:49:00,63.1,54.3,29.12,South,174,12.0,12.0,73,0.00,CLR,,0.00,WeatherDisplay:10.37,2013-04-09 07:49:00,
2013-04-09 02:54:00,63.1,54.3,29.12,South,174,12.0,12.0,73,0.00,CLR,,0.00,WeatherDisplay:10.37,2013-04-09 07:54:00,
2013-04-09 03:00:00,63.1,54.3,29.12,South,175,12.0,12.0,73,0.00,CLR,,0.00,WeatherDisplay:10.37,2013-04-09 08:00:00,
2013-04-09 03:05:00,63.1,54.3,29.12,South,179,12.0,12.0,73,0.00,CLR,,0.00,WeatherDisplay:10.37,2013-04-09 08:05:00,
2013-04-09 03:14:00,62.8,54.0,29.12,South,174,13.0,13.0,73,0.00,CLR,,0.00,WeatherDisplay:10.37,2013-04-09 08:14:00,
2013-04-09 03:20:00,62.6,53.8,29.12,South,175,13.0,13.0,73,0.00,CLR,,0.00,WeatherDisplay:10.37,2013-04-09 08:20:00,
2013-04-09 03:24:00,62.6,53.8,29.12,South,178,13.0,13.0,73,0.00,CLR,,0.00,WeatherDisplay:10.37,2013-04-09 08:24:00,
2013-04-09 03:30:00,62.6,53.8,29.12,South,176,13.0,13.0,73,0.00,CLR,,0.00,WeatherDisplay:10.37,2013-04-09 08:30:00,
2013-04-09 03:34:00,63.1,54.7,29.12,South,180,13.0,13.0,74,0.00,CLR,,0.00,WeatherDisplay:10.37,2013-04-09 08:34:00,
2013-04-09 03:40:00,63.1,54.3,29.12,South,184,13.0,13.0,73,0.00,CLR,,0.00,WeatherDisplay:10.37,2013-04-09 08:40:00,
2013-04-09 03:50:00,63.3,54.5,29.12,South,185,14.0,14.0,73,0.00,BKN,,0.00,WeatherDisplay:10.37,2013-04-09 08:50:00,
2013-04-09 03:55:00,63.3,54.5,29.12,South,183,14.0,14.0,73,0.00,BKN,,0.00,WeatherDisplay:10.37,2013-04-09 08:55:00,
2013-04-09 03:59:00,63.3,54.1,29.12,South,178,14.0,14.0,72,0.00,BKN,,0.00,WeatherDisplay:10.37,2013-04-09 08:59:00,
2013-04-09 04:05:00,63.3,54.5,29.12,South,175,14.0,14.0,73,0.00,SCT,,0.00,WeatherDisplay:10.37,2013-04-09 09:05:00,
2013-04-09 04:10:00,63.3,54.5,29.12,South,177,14.0,14.0,73,0.00,SCT,,0.00,WeatherDisplay:10.37,2013-04-09 09:10:00,
2013-04-09 04:15:00,63.7,54.9,29.12,South,180,14.0,14.0,73,0.00,SCT,,0.00,WeatherDisplay:10.37,2013-04-09 09:15:00,
2013-04-09 04:20:00,64.0,54.8,29.12,South,182,14.0,14.0,72,0.00,SCT,,0.00,WeatherDisplay:10.37,2013-04-09 09:20:00,
2013-04-09 04:24:00,64.0,54.8,29.12,South,180,14.0,14.0,72,0.00,SCT,,0.00,WeatherDisplay:10.37,2013-04-09 09:24:00,
2013-04-09 04:30:00,64.4,54.4,29.12,South,177,14.0,14.0,70,0.00,SCT,,0.00,WeatherDisplay:10.37,2013-04-09 09:30:00,
2013-04-09 04:40:00,64.0,54.4,29.12,South,176,14.0,14.0,71,0.00,BKN,,0.00,WeatherDisplay:10.37,2013-04-09 09:40:00,
2013-04-09 04:44:00,63.9,54.3,29.12,South,174,14.0,14.0,71,0.00,BKN,,0.00,WeatherDisplay:10.37,2013-04-09 09:44:00,
2013-04-09 04:50:00,64.0,54.4,29.12,South,176,14.0,14.0,71,0.00,BKN,,0.00,WeatherDisplay:10.37,2013-04-09 09:50:00,
2013-04-09 04:59:00,64.2,54.6,29.12,South,170,14.0,14.0,71,0.00,BKN,,0.00,WeatherDisplay:10.37,2013-04-09 09:59:00,
2013-04-09 05:05:00,64.2,54.6,29.12,South,170,14.0,14.0,71,0.00,BKN,,0.00,WeatherDisplay:10.37,2013-04-09 10:05:00,
2013-04-09 05:14:00,64.0,54.4,29.12,SSE,168,13.0,14.0,71,0.00,BKN,,0.00,WeatherDisplay:10.37,2013-04-09 10:14:00,
2013-04-09 05:20:00,63.5,53.9,29.12,SSE,160,13.0,13.0,71,0.00,BKN,,0.00,WeatherDisplay:10.37,2013-04-09 10:20:00,
2013-04-09 05:24:00,63.5,53.9,29.12,SSE,160,13.0,13.0,71,0.00,BKN,,0.00,WeatherDisplay:10.37,2013-04-09 10:24:00,
2013-04-09 05:34:00,63.5,54.3,29.12,SSE,167,13.0,13.0,72,0.00,OVC,,0.00,WeatherDisplay:10.37,2013-04-09 10:34:00,
2013-04-09 05:40:00,63.5,54.3,29.12,SSE,166,13.0,13.0,72,0.00,OVC,,0.00,WeatherDisplay:10.37,2013-04-09 10:40:00,
2013-04-09 05:49:00,63.9,54.7,29.15,SSE,164,13.0,13.0,72,0.00,OVC,,0.00,WeatherDisplay:10.37,2013-04-09 10:49:00,
2013-04-09 05:55:00,63.9,54.3,29.15,SSE,164,13.0,13.0,71,0.00,OVC,,0.00,WeatherDisplay:10.37,2013-04-09 10:55:00,
2013-04-09 06:05:00,63.9,54.3,29.15,South,169,13.0,13.0,71,0.00,OVC,,0.00,WeatherDisplay:10.37,2013-04-09 11:05:00,
2013-04-09 06:10:00,63.9,54.3,29.15,South,169,13.0,13.0,71,0.00,OVC,,0.00,WeatherDisplay:10.37,2013-04-09 11:10:00,
2013-04-09 06:14:00,63.9,54.3,29.15,South,170,13.0,13.0,71,0.00,OVC,,0.00,WeatherDisplay:10.37,2013-04-09 11:14:00,
2013-04-09 06:20:00,64.0,54.4,29.15,South,170,13.0,13.0,71,0.00,OVC,,0.00,WeatherDisplay:10.37,2013-04-09 11:20:00,
2013-04-09 06:25:00,64.0,54.4,29.15,South,170,13.0,13.0,71,0.00,OVC,,0.00,WeatherDisplay:10.37,2013-04-09 11:25:00,
2013-04-09 06:34:00,64.0,54.4,29.15,South,172,13.0,13.0,71,0.00,BKN,,0.00,WeatherDisplay:10.37,2013-04-09 11:34:00,
2013-04-09 06:40:00,64.0,54.4,29.15,South,171,13.0,13.0,71,0.00,BKN,,0.00,WeatherDisplay:10.37,2013-04-09 11:40:00,
2013-04-09 06:44:00,64.2,54.6,29.15,South,169,13.0,13.0,71,0.00,BKN,,0.00,WeatherDisplay:10.37,2013-04-09 11:44:00,
2013-04-09 06:50:00,64.2,54.6,29.15,SSE,167,13.0,13.0,71,0.00,OVC,,0.00,WeatherDisplay:10.37,2013-04-09 11:50:00,
2013-04-09 06:59:00,64.4,54.0,29.15,SSE,168,13.0,13.0,69,0.00,OVC,,0.00,WeatherDisplay:10.37,2013-04-09 11:59:00,
2013-04-09 07:05:00,64.8,53.9,29.15,South,169,14.0,14.0,68,0.00,BKN,,0.00,WeatherDisplay:10.37,2013-04-09 12:05:00,
2013-04-09 07:14:00,65.7,54.8,29.15,South,182,14.0,14.0,68,0.00,BKN,,0.00,WeatherDisplay:10.37,2013-04-09 12:14:00,
2013-04-09 07:20:00,66.4,54.7,29.15,South,184,15.0,15.0,66,0.00,BKN,,0.00,WeatherDisplay:10.37,2013-04-09 12:20:00,
2013-04-09 07:24:00,66.6,54.4,29.15,South,188,15.0,15.0,65,0.00,BKN,,0.00,WeatherDisplay:10.37,2013-04-09 12:24:00,
2013-04-09 07:30:00,66.6,54.4,29.15,South,189,16.0,16.0,65,0.00,BKN,,0.00,WeatherDisplay:10.37,2013-04-09 12:30:00,
2013-04-09 07:34:00,66.4,54.3,29.15,South,185,16.0,16.0,65,0.00,BKN,,0.00,WeatherDisplay:10.37,2013-04-09 12:34:00,
2013-04-09 07:40:00,66.2,54.1,29.15,South,189,17.0,17.0,65,0.00,BKN,,0.00,WeatherDisplay:10.37,2013-04-09 12:40:00,
2013-04-09 07:45:00,66.0,54.3,29.15,South,189,17.0,18.0,66,0.00,BKN,,0.00,WeatherDisplay:10.37,2013-04-09 12:45:00,
2013-04-09 07:59:00,65.8,54.2,29.15,South,186,18.0,19.0,66,0.00,BKN,,0.00,WeatherDisplay:10.37,2013-04-09 12:59:00,
2013-04-09 08:04:00,65.7,54.4,29.15,South,187,18.0,19.0,67,0.00,OVC,,0.00,WeatherDisplay:10.37,2013-04-09 13:04:00,
2013-04-09 08:10:00,65.7,54.4,29.15,South,188,20.0,20.0,67,0.00,OVC,,0.00,WeatherDisplay:10.37,2013-04-09 13:10:00,
2013-04-09 08:19:00,65.5,54.2,29.15,South,185,18.0,20.0,67,0.00,OVC,,0.00,WeatherDisplay:10.37,2013-04-09 13:19:00,
2013-04-09 08:30:00,65.8,55.0,29.15,South,188,20.0,20.0,68,0.00,OVC,,0.00,WeatherDisplay:10.37,2013-04-09 13:30:00,
2013-04-09 08:34:00,66.0,55.2,29.15,South,187,20.0,20.0,68,0.00,OVC,,0.00,WeatherDisplay:10.37,2013-04-09 13:34:00,
2013-04-09 08:40:00,66.2,54.9,29.15,South,189,20.0,20.0,67,0.00,OVC,,0.00,WeatherDisplay:10.37,2013-04-09 13:40:00,
2013-04-09 08:44:00,66.4,54.7,29.15,South,191,20.0,20.0,66,0.00,OVC,,0.00,WeatherDisplay:10.37,2013-04-09 13:44:00,
2013-04-09 08:50:00,66.7,55.0,29.15,South,190,20.0,20.0,66,0.00,BKN,,0.00,WeatherDisplay:10.37,2013-04-09 13:50:00,
2013-04-09 08:55:00,66.7,55.0,29.15,SSW,192,20.0,20.0,66,0.00,BKN,,0.00,WeatherDisplay:10.37,2013-04-09 13:55:00,
2013-04-09 09:04:00,67.1,55.4,29.15,SSW,195,21.0,21.0,66,0.00,BKN,,0.00,WeatherDisplay:10.37,2013-04-09 14:04:00,
2013-04-09 09:10:00,67.5,55.3,29.15,SSW,195,21.0,21.0,65,0.00,BKN,,0.00,WeatherDisplay:10.37,2013-04-09 14:10:00,
2013-04-09 09:20:00,67.6,55.5,29.15,SSW,195,21.0,21.0,65,0.00,BKN,,0.00,WeatherDisplay:10.37,2013-04-09 14:20:00,
2013-04-09 09:24:00,67.6,55.5,29.15,SSW,195,21.0,21.0,65,0.00,BKN,,0.00,WeatherDisplay:10.37,2013-04-09 14:24:00,
2013-04-09 09:30:00,68.0,54.9,29.15,SSW,197,21.0,21.0,63,0.00,BKN,,0.00,WeatherDisplay:10.37,2013-04-09 14:30:00,
2013-04-09 09:35:00,68.0,54.9,29.15,SSW,200,21.0,21.0,63,0.00,BKN,,0.00,WeatherDisplay:10.37,2013-04-09 14:35:00,
2013-04-09 09:44:00,68.0,54.9,29.15,SSW,200,21.0,21.0,63,0.00,BKN,,0.00,WeatherDisplay:10.37,2013-04-09 14:44:00,
2013-04-09 09:50:00,67.6,55.5,29.15,SSW,202,21.0,21.0,65,0.00,BKN,,0.00,WeatherDisplay:10.37,2013-04-09 14:50:00,
2013-04-09 09:55:00,67.6,55.5,29.15,SSW,204,21.0,21.0,65,0.00,BKN,,0.00,WeatherDisplay:10.37,2013-04-09 14:55:00,
2013-04-09 10:04:00,68.0,55.8,29.15,SSW,202,21.0,21.0,65,0.00,SCT,,0.00,WeatherDisplay:10.37,2013-04-09 15:04:00,
2013-04-09 10:10:00,68.0,55.8,29.15,SSW,204,21.0,21.0,65,0.00,SCT,,0.00,WeatherDisplay:10.37,2013-04-09 15:10:00,
2013-04-09 10:19:00,67.8,56.0,29.15,SSW,208,22.0,22.0,66,0.00,SCT,,0.00,WeatherDisplay:10.37,2013-04-09 15:19:00,
2013-04-09 10:25:00,68.0,55.8,29.15,SSW,210,22.0,22.0,65,0.00,SCT,,0.00,WeatherDisplay:10.37,2013-04-09 15:25:00,
2013-04-09 10:30:00,68.4,56.1,29.15,SSW,207,22.0,22.0,65,0.00,SCT,,0.00,WeatherDisplay:10.37,2013-04-09 15:30:00,
2013-04-09 10:40:00,69.8,56.6,29.12,SSW,205,22.0,22.0,63,0.00,SCT,,0.00,WeatherDisplay:10.37,2013-04-09 15:40:00,
2013-04-09 10:45:00,70.0,56.8,29.12,SSW,205,23.0,23.0,63,0.00,SCT,,0.00,WeatherDisplay:10.37,2013-04-09 15:45:00,
2013-04-09 10:54:00,71.1,57.4,29.12,SSW,206,23.0,23.0,62,0.00,SCT,,0.00,WeatherDisplay:10.37,2013-04-09 15:54:00,
2013-04-09 10:59:00,71.2,57.1,29.12,SSW,211,24.0,24.0,61,0.00,SCT,,0.00,WeatherDisplay:10.37,2013-04-09 15:59:00,
2013-04-09 11:05:00,72.0,57.3,29.12,SW,215,24.0,25.0,60,0.00,SCT,,0.00,WeatherDisplay:10.37,2013-04-09 16:05:00,
2013-04-09 11:15:00,74.1,57.4,29.12,SW,215,26.0,26.0,56,0.00,SCT,,0.00,WeatherDisplay:10.37,2013-04-09 16:15:00,
2013-04-09 11:20:00,74.8,57.6,29.12,SW,219,26.0,27.0,55,0.00,SCT,,0.00,WeatherDisplay:10.37,2013-04-09 16:20:00,
2013-04-09 11:29:00,75.4,57.1,29.12,SW,220,29.0,29.0,53,0.00,SCT,,0.00,WeatherDisplay:10.37,2013-04-09 16:29:00,
2013-04-09 11:34:00,75.7,56.9,29.12,SW,216,29.0,29.0,52,0.00,SCT,,0.00,WeatherDisplay:10.37,2013-04-09 16:34:00,
2013-04-09 11:39:00,76.3,57.9,29.12,SW,219,30.0,30.0,53,0.00,SCT,,0.00,WeatherDisplay:10.37,2013-04-09 16:39:00,
2013-04-09 11:44:00,75.7,56.9,29.12,SW,227,30.0,30.0,52,0.00,SCT,,0.00,WeatherDisplay:10.37,2013-04-09 16:44:00,
2013-04-09 11:50:00,76.1,57.2,29.12,SW,230,30.0,30.0,52,0.00,SCT,,0.00,WeatherDisplay:10.37,2013-04-09 16:50:00,
2013-04-09 11:54:00,76.1,56.1,29.12,SW,230,30.0,30.0,50,0.00,SCT,,0.00,WeatherDisplay:10.37,2013-04-09 16:54:00,
2013-04-09 12:00:00,75.9,56.5,29.12,SW,227,30.0,30.0,51,0.00,SCT,,0.00,WeatherDisplay:10.37,2013-04-09 17:00:00,
2013-04-09 12:05:00,76.3,56.8,29.12,SW,224,30.0,30.0,51,0.00,SCT,,0.00,WeatherDisplay:10.37,2013-04-09 17:05:00,
2013-04-09 12:15:00,76.5,56.4,29.12,SW,229,30.0,30.0,50,0.00,SCT,,0.00,WeatherDisplay:10.37,2013-04-09 17:15:00,
2013-04-09 12:24:00,77.9,57.8,29.12,SW,234,30.0,30.0,50,0.00,SCT,,0.00,WeatherDisplay:10.37,2013-04-09 17:24:00,
2013-04-09 12:30:00,78.1,57.4,29.12,SW,233,30.0,30.0,49,0.00,SCT,,0.00,WeatherDisplay:10.37,2013-04-09 17:30:00,
2013-04-09 12:35:00,77.5,57.4,29.12,SW,230,30.0,30.0,50,0.00,SCT,,0.00,WeatherDisplay:10.37,2013-04-09 17:35:00,
2013-04-09 12:45:00,77.2,56.5,29.12,SW,231,31.0,31.0,49,0.00,SCT,,0.00,WeatherDisplay:10.37,2013-04-09 17:45:00,
2013-04-09 12:50:00,76.6,57.2,29.12,SW,230,32.0,32.0,51,0.00,SCT,,0.00,WeatherDisplay:10.37,2013-04-09 17:50:00,
2013-04-09 12:59:00,77.0,56.9,29.12,WSW,244,33.0,33.0,50,0.00,SCT,,0.00,WeatherDisplay:10.37,2013-04-09 17:59:00,
2013-04-09 13:05:00,77.0,56.9,29.12,WSW,243,32.0,33.0,50,0.00,SCT,,0.00,WeatherDisplay:10.37,2013-04-09 18:05:00,
2013-04-09 13:14:00,76.5,57.5,29.15,WSW,238,32.0,33.0,52,0.00,SCT,,0.00,WeatherDisplay:10.37,2013-04-09 18:14:00,
2013-04-09 13:20:00,76.5,58.1,29.15,SW,234,31.0,33.0,53,0.00,SCT,,0.00,WeatherDisplay:10.37,2013-04-09 18:20:00,
2013-04-09 13:24:00,76.3,57.9,29.12,SW,231,31.0,31.0,53,0.00,SCT,,0.00,WeatherDisplay:10.37,2013-04-09 18:24:00,
2013-04-09 13:30:00,76.1,57.7,29.12,SW,230,30.0,31.0,53,0.00,SCT,,0.00,WeatherDisplay:10.37,2013-04-09 18:30:00,
2013-04-09 13:40:00,76.3,57.9,29.12,SW,233,30.0,30.0,53,0.00,SCT,,0.00,WeatherDisplay:10.37,2013-04-09 18:40:00,
2013-04-09 13:49:00,76.1,57.7,29.12,SW,235,29.0,29.0,53,0.00,SCT,,0.00,WeatherDisplay:10.37,2013-04-09 18:49:00,
2013-04-09 13:55:00,76.6,58.7,29.12,SW,235,29.0,29.0,54,0.00,SCT,,0.00,WeatherDisplay:10.37,2013-04-09 18:55:00,
2013-04-09 14:05:00,76.8,57.9,29.12,SW,235,29.0,29.0,52,0.00,CLR,,0.00,WeatherDisplay:10.37,2013-04-09 19:05:00,
2013-04-09 14:14:00,76.6,58.2,29.12,SW,235,29.0,29.0,53,0.00,CLR,,0.00,WeatherDisplay:10.37,2013-04-09 19:14:00,
2013-04-09 14:20:00,76.5,58.1,29.12,SW,235,29.0,29.0,53,0.00,CLR,,0.00,WeatherDisplay:10.37,2013-04-09 19:20:00,
2013-04-09 14:25:00,75.7,57.4,29.12,SW,235,29.0,29.0,53,0.00,CLR,,0.00,WeatherDisplay:10.37,2013-04-09 19:25:00,
2013-04-09 14:30:00,75.4,57.1,29.12,SW,235,29.0,29.0,53,0.00,CLR,,0.00,WeatherDisplay:10.37,2013-04-09 19:30:00,
2013-04-09 14:39:00,74.8,57.6,29.12,SW,235,29.0,29.0,55,0.00,SCT,,0.00,WeatherDisplay:10.37,2013-04-09 19:39:00,
2013-04-09 14:45:00,74.8,57.6,29.12,SW,235,29.0,29.0,55,0.00,SCT,,0.00,WeatherDisplay:10.37,2013-04-09 19:45:00,
2013-04-09 14:54:00,73.9,57.3,29.12,SW,235,29.0,29.0,56,0.00,SCT,,0.00,WeatherDisplay:10.37,2013-04-09 19:54:00,
2013-04-09 14:59:00,73.8,57.1,29.12,SW,235,29.0,29.0,56,0.00,SCT,,0.00,WeatherDisplay:10.37,2013-04-09 19:59:00,
2013-04-09 15:04:00,74.3,57.6,29.12,SW,235,29.0,29.0,56,0.00,BKN,,0.00,WeatherDisplay:10.37,2013-04-09 20:04:00,
2013-04-09 15:10:00,74.7,57.9,29.12,SW,235,29.0,29.0,56,0.00,BKN,,0.00,WeatherDisplay:10.37,2013-04-09 20:10:00,
2013-04-09 15:19:00,75.2,57.4,29.12,SW,235,29.0,29.0,54,0.00,BKN,,0.00,WeatherDisplay:10.37,2013-04-09 20:19:00,
2013-04-09 15:24:00,75.9,58.1,29.12,SW,235,29.0,29.0,54,0.00,BKN,,0.00,WeatherDisplay:10.37,2013-04-09 20:24:00,
2013-04-09 15:30:00,77.5,58.5,29.12,SW,235,29.0,29.0,52,0.00,BKN,,0.00,WeatherDisplay:10.37,2013-04-09 20:30:00,
2013-04-09 15:45:00,80.2,58.2,29.12,SW,235,29.0,29.0,47,0.00,SCT,,0.00,WeatherDisplay:10.37,2013-04-09 20:45:00,
2013-04-09 15:54:00,79.9,58.4,29.12,SW,235,29.0,29.0,48,0.00,CLR,,0.00,WeatherDisplay:10.37,2013-04-09 20:54:00,
2013-04-09 16:04:00,79.9,58.4,29.12,WSW,237,29.0,29.0,48,0.00,CLR,,0.00,WeatherDisplay:10.37,2013-04-09 21:04:00,
2013-04-09 16:10:00,79.9,58.4,29.12,WSW,238,29.0,29.0,48,0.00,CLR,,0.00,WeatherDisplay:10.37,2013-04-09 21:10:00,
2013-04-09 16:14:00,79.9,58.4,29.12,WSW,240,29.0,29.0,48,0.00,CLR,,0.00,WeatherDisplay:10.37,2013-04-09 21:14:00,
2013-04-09 16:20:00,79.9,58.4,29.12,WSW,240,29.0,29.0,48,0.00,CLR,,0.00,WeatherDisplay:10.37,2013-04-09 21:20:00,
2013-04-09 16:29:00,79.9,58.4,29.12,WSW,240,29.0,29.0,48,0.00,CLR,,0.00,WeatherDisplay:10.37,2013-04-09 21:29:00,
2013-04-09 16:34:00,79.7,58.3,29.09,WSW,240,29.0,29.0,48,0.00,CLR,,0.00,WeatherDisplay:10.37,2013-04-09 21:34:00,
2013-04-09 16:40:00,79.7,58.3,29.09,WSW,240,29.0,29.0,48,0.00,CLR,,0.00,WeatherDisplay:10.37,2013-04-09 21:40:00,
2013-04-09 16:45:00,79.7,58.3,29.09,WSW,240,29.0,29.0,48,0.00,CLR,,0.00,WeatherDisplay:10.37,2013-04-09 21:45:00,
2013-04-09 16:50:00,79.7,58.3,29.09,WSW,240,29.0,29.0,48,0.00,SCT,,0.00,WeatherDisplay:10.37,2013-04-09 21:50:00,
2013-04-09 16:59:00,78.1,57.9,29.09,WSW,243,28.0,29.0,50,0.00,SCT,,0.00,WeatherDisplay:10.37,2013-04-09 21:59:00,
2013-04-09 17:04:00,79.5,58.7,29.09,WSW,241,28.0,28.0,49,0.00,CLR,,0.00,WeatherDisplay:10.37,2013-04-09 22:04:00,
2013-04-09 17:10:00,79.2,58.4,29.09,WSW,238,28.0,28.0,49,0.00,CLR,,0.00,WeatherDisplay:10.37,2013-04-09 22:10:00,
2013-04-09 17:19:00,79.7,58.8,29.09,SW,231,26.0,26.0,49,0.00,CLR,,0.00,WeatherDisplay:10.37,2013-04-09 22:19:00,
2013-04-09 17:24:00,80.4,59.5,29.09,SW,230,25.0,26.0,49,0.00,CLR,,0.00,WeatherDisplay:10.37,2013-04-09 22:24:00,
2013-04-09 17:30:00,78.4,58.3,29.09,SW,236,25.0,25.0,50,0.00,CLR,,0.00,WeatherDisplay:10.37,2013-04-09 22:30:00,
2013-04-09 17:40:00,77.4,57.8,29.09,SW,235,24.0,24.0,51,0.00,CLR,,0.00,WeatherDisplay:10.37,2013-04-09 22:40:00,
2013-04-09 17:50:00,77.5,58.5,29.12,WSW,238,23.0,23.0,52,0.00,CLR,,0.00,WeatherDisplay:10.37,2013-04-09 22:50:00,
2013-04-09 17:59:00,77.7,58.1,29.12,WSW,243,22.0,22.0,51,0.00,CLR,,0.00,WeatherDisplay:10.37,2013-04-09 22:59:00,
2013-04-09 18:05:00,77.2,57.7,29.12,WSW,245,22.0,22.0,51,0.00,CLR,,0.00,WeatherDisplay:10.37,2013-04-09 23:05:00,
2013-04-09 18:09:00,77.4,58.4,29.12,WSW,247,22.0,22.0,52,0.00,CLR,,0.00,WeatherDisplay:10.37,2013-04-09 23:09:00,
2013-04-09 18:15:00,77.5,58.5,29.12,WSW,250,22.0,22.0,52,0.00,CLR,,0.00,WeatherDisplay:10.37,2013-04-09 23:15:00,
2013-04-09 18:24:00,77.5,58.5,29.12,WSW,250,22.0,22.0,52,0.00,CLR,,0.00,WeatherDisplay:10.37,2013-04-09 23:24:00,
2013-04-09 18:30:00,77.5,58.5,29.12,WSW,250,22.0,22.0,52,0.00,CLR,,0.00,WeatherDisplay:10.37,2013-04-09 23:30:00,
2013-04-09 18:34:00,77.5,58.5,29.12,WSW,250,22.0,22.0,52,0.00,CLR,,0.00,WeatherDisplay:10.37,2013-04-09 23:34:00,
2013-04-09 18:40:00,77.5,58.5,29.12,WSW,250,22.0,22.0,52,0.00,CLR,,0.00,WeatherDisplay:10.37,2013-04-09 23:40:00,
2013-04-09 18:44:00,77.5,58.5,29.12,WSW,250,22.0,22.0,52,0.00,CLR,,0.00,WeatherDisplay:10.37,2013-04-09 23:44:00,
2013-04-09 18:50:00,77.5,58.5,29.12,WSW,250,22.0,22.0,52,0.00,SCT,,0.00,WeatherDisplay:10.37,2013-04-09 23:50:00,
2013-04-09 18:59:00,77.5,58.5,29.12,WSW,250,22.0,22.0,52,0.00,SCT,,0.00,WeatherDisplay:10.37,2013-04-09 23:59:00,
2013-04-09 19:04:00,77.5,58.5,29.12,WSW,250,22.0,22.0,52,0.00,SCT,,0.00,WeatherDisplay:10.37,2013-04-10 00:04:00,
2013-04-09 19:09:00,77.5,58.5,29.12,WSW,250,22.0,22.0,52,0.00,SCT,,0.00,WeatherDisplay:10.37,2013-04-10 00:09:00,
2013-04-09 19:14:00,77.5,58.5,29.12,WSW,250,22.0,22.0,52,0.00,SCT,,0.00,WeatherDisplay:10.37,2013-04-10 00:14:00,
2013-04-09 19:19:00,77.5,58.5,29.12,WSW,250,22.0,22.0,52,0.00,SCT,,0.00,WeatherDisplay:10.37,2013-04-10 00:19:00,
2013-04-09 19:24:00,77.5,58.5,29.12,WSW,250,22.0,22.0,52,0.00,SCT,,0.00,WeatherDisplay:10.37,2013-04-10 00:24:00,
2013-04-09 19:29:00,77.5,58.5,29.12,WSW,250,22.0,22.0,52,0.00,SCT,,0.00,WeatherDisplay:10.37,2013-04-10 00:29:00,
2013-04-09 19:34:00,77.5,58.5,29.12,WSW,250,22.0,22.0,52,0.00,SCT,,0.00,WeatherDisplay:10.37,2013-04-10 00:34:00,
2013-04-09 19:40:00,77.5,58.5,29.12,WSW,250,22.0,22.0,52,0.00,SCT,,0.00,WeatherDisplay:10.37,2013-04-10 00:40:00,
2013-04-09 19:49:00,77.5,58.5,29.12,WSW,250,22.0,22.0,52,0.00,SCT,,0.00,WeatherDisplay:10.37,2013-04-10 00:49:00,
2013-04-09 19:54:00,77.5,58.5,29.12,WSW,250,22.0,22.0,52,0.00,SCT,,0.00,WeatherDisplay:10.37,2013-04-10 00:54:00,
2013-04-09 19:59:00,77.5,58.5,29.12,WSW,250,22.0,22.0,52,0.00,SCT,,0.00,WeatherDisplay:10.37,2013-04-10 00:59:00,
2013-04-09 20:04:00,77.5,58.5,29.12,WSW,250,22.0,22.0,52,0.00,SCT,,0.00,WeatherDisplay:10.37,2013-04-10 01:04:00,
2013-04-09 20:10:00,77.5,58.5,29.12,WSW,250,22.0,22.0,52,0.00,SCT,,0.00,WeatherDisplay:10.37,2013-04-10 01:10:00,
2013-04-09 20:20:00,77.5,58.5,29.12,WSW,250,22.0,22.0,52,0.00,SCT,,0.00,WeatherDisplay:10.37,2013-04-10 01:20:00,
2013-04-09 20:25:00,77.5,58.5,29.12,WSW,250,22.0,22.0,52,0.00,SCT,,0.00,WeatherDisplay:10.37,2013-04-10 01:25:00,
2013-04-09 20:29:00,77.5,58.5,29.12,WSW,250,22.0,22.0,52,0.00,SCT,,0.00,WeatherDisplay:10.37,2013-04-10 01:29:00,
2013-04-09 20:34:00,77.5,58.5,29.12,WSW,250,22.0,22.0,52,0.00,SCT,,0.00,WeatherDisplay:10.37,2013-04-10 01:34:00,
2013-04-09 20:40:00,77.5,58.5,29.12,WSW,250,22.0,22.0,52,0.00,SCT,,0.00,WeatherDisplay:10.37,2013-04-10 01:40:00,
2013-04-09 20:44:00,77.5,58.5,29.12,WSW,250,22.0,22.0,52,0.00,SCT,,0.00,WeatherDisplay:10.37,2013-04-10 01:44:00,
2013-04-09 20:50:00,77.5,58.5,29.12,WSW,250,22.0,22.0,52,0.00,SCT,,0.00,WeatherDisplay:10.37,2013-04-10 01:50:00,
2013-04-09 21:00:00,77.5,58.5,29.12,WSW,250,22.0,22.0,52,0.00,SCT,,0.00,WeatherDisplay:10.37,2013-04-10 02:00:00,
2013-04-09 21:09:00,77.5,58.5,29.12,WSW,250,22.0,22.0,52,0.00,SCT,,0.00,WeatherDisplay:10.37,2013-04-10 02:09:00,
2013-04-09 21:14:00,77.5,58.5,29.12,WSW,250,22.0,22.0,52,0.00,SCT,,0.00,WeatherDisplay:10.37,2013-04-10 02:14:00,
2013-04-09 21:20:00,77.5,58.5,29.12,WSW,250,22.0,22.0,52,0.00,SCT,,0.00,WeatherDisplay:10.37,2013-04-10 02:20:00,
2013-04-09 21:24:00,77.5,58.5,29.12,WSW,250,22.0,22.0,52,0.00,SCT,,0.00,WeatherDisplay:10.37,2013-04-10 02:24:00,
2013-04-09 21:29:00,77.5,58.5,29.12,WSW,250,22.0,22.0,52,0.00,SCT,,0.00,WeatherDisplay:10.37,2013-04-10 02:29:00,
2013-04-09 21:34:00,77.5,58.5,29.12,WSW,250,22.0,22.0,52,0.00,SCT,,0.00,WeatherDisplay:10.37,2013-04-10 02:34:00,
2013-04-09 21:40:00,77.5,58.5,29.12,WSW,250,22.0,22.0,52,0.00,SCT,,0.00,WeatherDisplay:10.37,2013-04-10 02:40:00,
2013-04-09 21:49:00,77.5,58.5,29.12,WSW,250,22.0,22.0,52,0.00,SCT,,0.00,WeatherDisplay:10.37,2013-04-10 02:49:00,
2013-04-09 21:54:00,77.5,58.5,29.12,WSW,250,22.0,22.0,52,0.00,SCT,,0.00,WeatherDisplay:10.37,2013-04-10 02:54:00,
2013-04-09 21:59:00,77.5,58.5,29.12,WSW,250,22.0,22.0,52,0.00,SCT,,0.00,WeatherDisplay:10.37,2013-04-10 02:59:00,
2013-04-09 22:05:00,77.5,58.5,29.12,WSW,250,22.0,22.0,52,0.00,BKN,,0.00,WeatherDisplay:10.37,2013-04-10 03:05:00,
2013-04-09 22:10:00,77.5,58.5,29.12,WSW,250,22.0,22.0,52,0.00,BKN,,0.00,WeatherDisplay:10.37,2013-04-10 03:10:00,
2013-04-09 22:19:00,77.5,58.5,29.12,WSW,250,22.0,22.0,52,0.00,BKN,,0.00,WeatherDisplay:10.37,2013-04-10 03:19:00,
2013-04-09 22:24:00,77.5,58.5,29.12,WSW,250,22.0,22.0,52,0.00,BKN,,0.00,WeatherDisplay:10.37,2013-04-10 03:24:00,
2013-04-09 22:29:00,77.5,58.5,29.12,WSW,250,22.0,22.0,52,0.00,BKN,,0.00,WeatherDisplay:10.37,2013-04-10 03:29:00,
2013-04-09 22:34:00,77.5,58.5,29.12,WSW,250,22.0,22.0,52,0.00,BKN,,0.00,WeatherDisplay:10.37,2013-04-10 03:34:00,
2013-04-09 22:39:00,77.5,58.5,29.12,WSW,250,22.0,22.0,52,0.00,BKN,,0.00,WeatherDisplay:10.37,2013-04-10 03:39:00,
2013-04-09 22:44:00,77.5,58.5,29.12,WSW,250,22.0,22.0,52,0.00,BKN,,0.00,WeatherDisplay:10.37,2013-04-10 03:44:00,
2013-04-09 22:49:00,77.5,58.5,29.12,WSW,250,22.0,22.0,52,0.00,OVC,,0.00,WeatherDisplay:10.37,2013-04-10 03:49:00,
2013-04-09 22:54:00,77.5,58.5,29.12,WSW,250,22.0,22.0,52,0.00,OVC,,0.00,WeatherDisplay:10.37,2013-04-10 03:54:00,
2013-04-09 22:59:00,77.5,58.5,29.12,WSW,250,22.0,22.0,52,0.00,OVC,,0.00,WeatherDisplay:10.37,2013-04-10 03:59:00,
2013-04-09 23:04:00,77.5,58.5,29.12,WSW,250,22.0,22.0,52,0.00,OVC,,0.00,WeatherDisplay:10.37,2013-04-10 04:04:00,
2013-04-09 23:10:00,77.5,58.5,29.12,WSW,250,22.0,22.0,52,0.00,OVC,,0.00,WeatherDisplay:10.37,2013-04-10 04:10:00,
2013-04-09 23:14:00,77.5,58.5,29.12,WSW,250,22.0,22.0,52,0.00,OVC,,0.00,WeatherDisplay:10.37,2013-04-10 04:14:00,
2013-04-09 23:19:00,77.5,58.5,29.12,WSW,250,22.0,22.0,52,0.00,OVC,,0.00,WeatherDisplay:10.37,2013-04-10 04:19:00,
2013-04-09 23:25:00,77.5,58.5,29.12,WSW,250,22.0,22.0,52,0.00,OVC,,0.00,WeatherDisplay:10.37,2013-04-10 04:25:00,
2013-04-09 23:29:00,77.5,58.5,29.12,WSW,250,22.0,22.0,52,0.00,OVC,,0.00,WeatherDisplay:10.37,2013-04-10 04:29:00,
2013-04-09 23:34:00,77.5,58.5,29.12,WSW,250,22.0,22.0,52,0.00,SCT,,0.00,WeatherDisplay:10.37,2013-04-10 04:34:00,
2013-04-09 23:39:00,77.5,58.5,29.12,WSW,250,22.0,22.0,52,0.00,SCT,,0.00,WeatherDisplay:10.37,2013-04-10 04:39:00,
2013-04-09 23:44:00,77.5,58.5,29.12,WSW,250,22.0,22.0,52,0.00,SCT,,0.00,WeatherDisplay:10.37,2013-04-10 04:44:00,
2013-04-09 23:49:00,77.5,58.5,29.12,WSW,250,22.0,22.0,52,0.00,SCT,,0.00,WeatherDisplay:10.37,2013-04-10 04:49:00,
2013-04-09 23:54:00,77.5,58.5,29.12,WSW,250,22.0,22.0,52,0.00,SCT,,0.00,WeatherDisplay:10.37,2013-04-10 04:54:00,
2013-04-09 23:59:00,77.5,58.5,29.12,WSW,250,22.0,22.0,52,0.00,SCT,,0.00,WeatherDisplay:10.37,2013-04-10 04:59:00,